Quenames — WTU9038 — position and weather

sailwx.info

Track history (hours):
 
Tides and Currents Weather Stations Pressure Air Temp Water Temp Dewpoint Dewpoint Depression Visibility Wind Speed Wind Dir Waves Ship Positions

Quenames

Owner: BOSTON MARINE TRANSPORT INC, EAST BOSTON, MA. More information available from US FCC via Universal Licensing System and Coast Guard Vessel Documentation Center.

Last reported at 2014-Oct-25 13:21 UTC. Time now 2014-Oct-26 08:35 UTC.
Position N 40°58' W 073°54'.

Length 23 m.

Type: Tug. MMSI: 367022790.

Date/timePositionNaut miles runAvg speedWind from/ knotsBaromVisibWave heightAir tempDewpointWater temp
2014-Oct-25 13:21N 40°58' W 073°54'8 9.4
2014-Oct-25 12:28N 40°50' W 073°58'8 8.7
2014-Oct-25 11:33N 40°43' W 074°02'6 6.1
2014-Oct-25 10:33N 40°39' W 074°07'5 4.7
2014-Oct-25 09:33N 40°36' W 074°12'1 0.5
2014-Oct-25 08:33N 40°35' W 074°13'0 0.0
2014-Oct-25 07:26N 40°35' W 074°13'0 0.0
2014-Oct-25 06:32N 40°35' W 074°13'0 0.1
2014-Oct-25 05:20N 40°35' W 074°13'4 4.4
2014-Oct-25 04:28N 40°32' W 074°15'0 0.0
2014-Oct-25 03:27N 40°32' W 074°15'3 1.6
2014-Oct-25 01:29N 40°34' W 074°13'2 0.4
2014-Oct-24 20:24N 40°33' W 074°15'1 0.5
2014-Oct-24 18:25N 40°32' W 074°15'0 0.0
2014-Oct-24 16:17N 40°32' W 074°15'0 0.0
2014-Oct-24 09:08N 40°32' W 074°15'0 0.0
2014-Oct-24 05:21N 40°32' W 074°15'0 0.0
2014-Oct-24 03:28N 40°32' W 074°15'0 0.0
2014-Oct-23 23:04N 40°32' W 074°15'0 0.0
2014-Oct-23 22:27N 40°32' W 074°15'0 0.0
2014-Oct-23 19:28N 40°32' W 074°15'0 0.0
2014-Oct-23 17:32N 40°32' W 074°15'0 0.0
2014-Oct-23 11:32N 40°32' W 074°15'0 0.0
2014-Oct-23 08:28N 40°32' W 074°15'0 0.0
2014-Oct-23 00:19N 40°32' W 074°15'0 0.0
2014-Oct-22 22:13N 40°32' W 074°15'0 0.0
2014-Oct-22 21:29N 40°32' W 074°15'0 0.0
2014-Oct-22 18:16N 40°32' W 074°15'0 0.0
2014-Oct-22 17:08N 40°32' W 074°15'0 0.0
2014-Oct-22 16:16N 40°32' W 074°15'1 1.4
2014-Oct-22 15:33N 40°33' W 074°15'3 3.3
2014-Oct-22 14:33N 40°36' W 074°12'6 6.2
2014-Oct-22 13:33N 40°39' W 074°05'7 7.2
2014-Oct-22 12:33N 40°44' W 073°58'12 6.0
2014-Oct-22 10:30N 40°51' W 073°45'8 8.5
2014-Oct-22 09:33N 40°56' W 073°37'9 8.7
2014-Oct-22 08:33N 40°60' W 073°26'8 8.5
2014-Oct-22 07:33N 41°02' W 073°15'8 8.2
2014-Oct-22 06:32N 41°03' W 073°05'8 8.1
2014-Oct-22 05:33N 41°05' W 072°54'8 8.1
2014-Oct-22 04:33N 41°07' W 072°44'8 8.0
2014-Oct-22 03:33N 41°08' W 072°33'8 8.3
2014-Oct-22 02:33N 41°11' W 072°23'7 6.9
2014-Oct-22 01:33N 41°12' W 072°14'10 9.9
2014-Oct-22 00:33N 41°14' W 072°01'1010.0
2014-Oct-21 23:33N 41°16' W 071°48'9 9.2
2014-Oct-21 22:33N 41°16' W 071°36'8 8.2
2014-Oct-21 21:33N 41°17' W 071°25'8 7.7
2014-Oct-21 20:33N 41°21' W 071°16'8 8.1
2014-Oct-21 19:33N 41°24' W 071°06'9 7.9
2014-Oct-21 18:29N 41°29' W 070°56'55 3.7
2014-Oct-21 03:22N 42°24' W 071°01'0 0.0
2014-Oct-21 02:21N 42°24' W 071°01'0 0.0
2014-Oct-21 01:33N 42°24' W 071°01'0 0.0
2014-Oct-21 00:21N 42°24' W 071°01'54 3.0
2014-Oct-20 06:21N 41°30' W 070°50'11 6.0
2014-Oct-20 04:32N 41°25' W 071°03'6 6.3
2014-Oct-20 03:33N 41°24' W 071°11'7 6.6
2014-Oct-20 02:34N 41°23' W 071°20'5 4.9
2014-Oct-20 01:33N 41°22' W 071°26'3 3.5
2014-Oct-20 00:33N 41°20' W 071°30'4 4.0
2014-Oct-19 23:33N 41°19' W 071°35'5 5.2
2014-Oct-19 22:33N 41°18' W 071°42'5 5.1
2014-Oct-19 21:34N 41°17' W 071°48'5 5.2
2014-Oct-19 20:33N 41°15' W 071°55'5 4.9
2014-Oct-19 19:33N 41°14' W 072°01'5 5.2
2014-Oct-19 18:33N 41°14' W 072°08'5 5.0
2014-Oct-19 17:33N 41°12' W 072°14'5 4.7
2014-Oct-19 16:34N 41°12' W 072°21'7 7.2
2014-Oct-19 15:33N 41°10' W 072°30'7 7.2
2014-Oct-19 14:33N 41°11' W 072°40'7 6.9
2014-Oct-19 13:33N 41°11' W 072°49'6 5.6
2014-Oct-19 12:33N 41°13' W 072°56'1 0.8
2014-Oct-19 11:18N 41°14' W 072°57'0 0.0
2014-Oct-19 10:22N 41°14' W 072°57'0 0.0
2014-Oct-19 08:33N 41°14' W 072°57'0 0.1
2014-Oct-19 07:18N 41°14' W 072°57'0 0.0
2014-Oct-19 06:31N 41°14' W 072°57'0 0.0
2014-Oct-19 05:33N 41°14' W 072°57'6 6.4
2014-Oct-19 04:33N 41°08' W 073°01'10 8.4
2014-Oct-19 03:24N 41°04' W 073°13'7 8.3
2014-Oct-19 02:33N 41°02' W 073°22'8 7.9
2014-Oct-19 01:32N 40°59' W 073°32'17 7.3
2014-Oct-18 23:13N 40°48' W 073°49'5 7.8
2014-Oct-18 22:34N 40°47' W 073°55'7 6.6
2014-Oct-18 21:34N 40°41' W 074°00'7 7.2
2014-Oct-18 20:32N 40°39' W 074°09'7 0.5
2014-Oct-18 07:17N 40°33' W 074°15'0 0.1
2014-Oct-18 06:10N 40°33' W 074°15'0 0.0
2014-Oct-18 05:16N 40°33' W 074°15'0 0.0
2014-Oct-18 04:24N 40°33' W 074°15'0 0.0
2014-Oct-18 03:33N 40°33' W 074°15'0 0.0
2014-Oct-18 02:03N 40°33' W 074°15'1 0.0
2014-Oct-17 04:18N 40°32' W 074°15'0 0.0
2014-Oct-17 03:31N 40°32' W 074°15'0 0.0
2014-Oct-17 01:27N 40°32' W 074°15'0 0.0
2014-Oct-17 00:25N 40°32' W 074°15'0 0.0
2014-Oct-16 18:03N 40°32' W 074°15'0 0.0
2014-Oct-16 16:19N 40°32' W 074°15'0 0.0
2014-Oct-16 14:13N 40°32' W 074°15'0 0.0
2014-Oct-16 10:14N 40°32' W 074°15'5 2.5
2014-Oct-16 08:17N 40°36' W 074°12'5 1.0
2014-Oct-16 03:07N 40°39' W 074°07'0 0.0
2014-Oct-16 02:29N 40°39' W 074°07'0 0.0
2014-Oct-16 01:30N 40°39' W 074°07'0 0.0
2014-Oct-16 00:20N 40°39' W 074°07'0 0.0
2014-Oct-15 20:29N 40°39' W 074°07'0 0.0
2014-Oct-15 19:33N 40°39' W 074°07'0 0.1
2014-Oct-15 18:33N 40°39' W 074°07'6 6.3
2014-Oct-15 17:33N 40°35' W 074°13'3 2.3
2014-Oct-15 16:08N 40°32' W 074°15'0 0.0
2014-Oct-15 15:17N 40°32' W 074°15'0 0.0
2014-Oct-15 14:33N 40°32' W 074°15'0 0.0
2014-Oct-15 13:24N 40°32' W 074°15'  
Track history (hours):
 
Tides and Currents Weather Stations Pressure Air Temp Water Temp Dewpoint Dewpoint Depression Visibility Wind Speed Wind Dir Waves Ship Positions

Quenames

Owner: BOSTON MARINE TRANSPORT INC, EAST BOSTON, MA. More information available from US FCC via Universal Licensing System and Coast Guard Vessel Documentation Center.

Last reported at 2014-Oct-25 13:21 UTC. Time now 2014-Oct-26 08:35 UTC.
Position N 40°58' W 073°54'.

Length 23 m.

Type: Tug. MMSI: 367022790.

Date/timePositionNaut miles runAvg speedWind from/ knotsBaromVisibWave heightAir tempDewpointWater temp
2014-Oct-25 13:21N 40°58' W 073°54'8 9.4
2014-Oct-25 12:28N 40°50' W 073°58'8 8.7
2014-Oct-25 11:33N 40°43' W 074°02'6 6.1
2014-Oct-25 10:33N 40°39' W 074°07'5 4.7
2014-Oct-25 09:33N 40°36' W 074°12'1 0.5
2014-Oct-25 08:33N 40°35' W 074°13'0 0.0
2014-Oct-25 07:26N 40°35' W 074°13'0 0.0
2014-Oct-25 06:32N 40°35' W 074°13'0 0.1
2014-Oct-25 05:20N 40°35' W 074°13'4 4.4
2014-Oct-25 04:28N 40°32' W 074°15'0 0.0
2014-Oct-25 03:27N 40°32' W 074°15'3 1.6
2014-Oct-25 01:29N 40°34' W 074°13'2 0.4
2014-Oct-24 20:24N 40°33' W 074°15'1 0.5
2014-Oct-24 18:25N 40°32' W 074°15'0 0.0
2014-Oct-24 16:17N 40°32' W 074°15'0 0.0
2014-Oct-24 09:08N 40°32' W 074°15'0 0.0
2014-Oct-24 05:21N 40°32' W 074°15'0 0.0
2014-Oct-24 03:28N 40°32' W 074°15'0 0.0
2014-Oct-23 23:04N 40°32' W 074°15'0 0.0
2014-Oct-23 22:27N 40°32' W 074°15'0 0.0
2014-Oct-23 19:28N 40°32' W 074°15'0 0.0
2014-Oct-23 17:32N 40°32' W 074°15'0 0.0
2014-Oct-23 11:32N 40°32' W 074°15'0 0.0
2014-Oct-23 08:28N 40°32' W 074°15'0 0.0
2014-Oct-23 00:19N 40°32' W 074°15'0 0.0
2014-Oct-22 22:13N 40°32' W 074°15'0 0.0
2014-Oct-22 21:29N 40°32' W 074°15'0 0.0
2014-Oct-22 18:16N 40°32' W 074°15'0 0.0
2014-Oct-22 17:08N 40°32' W 074°15'0 0.0
2014-Oct-22 16:16N 40°32' W 074°15'1 1.4
2014-Oct-22 15:33N 40°33' W 074°15'3 3.3
2014-Oct-22 14:33N 40°36' W 074°12'6 6.2
2014-Oct-22 13:33N 40°39' W 074°05'7 7.2
2014-Oct-22 12:33N 40°44' W 073°58'12 6.0
2014-Oct-22 10:30N 40°51' W 073°45'8 8.5
2014-Oct-22 09:33N 40°56' W 073°37'9 8.7
2014-Oct-22 08:33N 40°60' W 073°26'8 8.5
2014-Oct-22 07:33N 41°02' W 073°15'8 8.2
2014-Oct-22 06:32N 41°03' W 073°05'8 8.1
2014-Oct-22 05:33N 41°05' W 072°54'8 8.1
2014-Oct-22 04:33N 41°07' W 072°44'8 8.0
2014-Oct-22 03:33N 41°08' W 072°33'8 8.3
2014-Oct-22 02:33N 41°11' W 072°23'7 6.9
2014-Oct-22 01:33N 41°12' W 072°14'10 9.9
2014-Oct-22 00:33N 41°14' W 072°01'1010.0
2014-Oct-21 23:33N 41°16' W 071°48'9 9.2
2014-Oct-21 22:33N 41°16' W 071°36'8 8.2
2014-Oct-21 21:33N 41°17' W 071°25'8 7.7
2014-Oct-21 20:33N 41°21' W 071°16'8 8.1
2014-Oct-21 19:33N 41°24' W 071°06'9 7.9
2014-Oct-21 18:29N 41°29' W 070°56'55 3.7
2014-Oct-21 03:22N 42°24' W 071°01'0 0.0
2014-Oct-21 02:21N 42°24' W 071°01'0 0.0
2014-Oct-21 01:33N 42°24' W 071°01'0 0.0
2014-Oct-21 00:21N 42°24' W 071°01'54 3.0
2014-Oct-20 06:21N 41°30' W 070°50'11 6.0
2014-Oct-20 04:32N 41°25' W 071°03'6 6.3
2014-Oct-20 03:33N 41°24' W 071°11'7 6.6
2014-Oct-20 02:34N 41°23' W 071°20'5 4.9
2014-Oct-20 01:33N 41°22' W 071°26'3 3.5
2014-Oct-20 00:33N 41°20' W 071°30'4 4.0
2014-Oct-19 23:33N 41°19' W 071°35'5 5.2
2014-Oct-19 22:33N 41°18' W 071°42'5 5.1
2014-Oct-19 21:34N 41°17' W 071°48'5 5.2
2014-Oct-19 20:33N 41°15' W 071°55'5 4.9
2014-Oct-19 19:33N 41°14' W 072°01'5 5.2
2014-Oct-19 18:33N 41°14' W 072°08'5 5.0
2014-Oct-19 17:33N 41°12' W 072°14'5 4.7
2014-Oct-19 16:34N 41°12' W 072°21'7 7.2
2014-Oct-19 15:33N 41°10' W 072°30'7 7.2
2014-Oct-19 14:33N 41°11' W 072°40'7 6.9
2014-Oct-19 13:33N 41°11' W 072°49'6 5.6
2014-Oct-19 12:33N 41°13' W 072°56'1 0.8
2014-Oct-19 11:18N 41°14' W 072°57'0 0.0
2014-Oct-19 10:22N 41°14' W 072°57'0 0.0
2014-Oct-19 08:33N 41°14' W 072°57'0 0.1
2014-Oct-19 07:18N 41°14' W 072°57'0 0.0
2014-Oct-19 06:31N 41°14' W 072°57'0 0.0
2014-Oct-19 05:33N 41°14' W 072°57'6 6.4
2014-Oct-19 04:33N 41°08' W 073°01'10 8.4
2014-Oct-19 03:24N 41°04' W 073°13'7 8.3
2014-Oct-19 02:33N 41°02' W 073°22'8 7.9
2014-Oct-19 01:32N 40°59' W 073°32'17 7.3
2014-Oct-18 23:13N 40°48' W 073°49'5 7.8
2014-Oct-18 22:34N 40°47' W 073°55'7 6.6
2014-Oct-18 21:34N 40°41' W 074°00'7 7.2
2014-Oct-18 20:32N 40°39' W 074°09'7 0.5
2014-Oct-18 07:17N 40°33' W 074°15'0 0.1
2014-Oct-18 06:10N 40°33' W 074°15'0 0.0
2014-Oct-18 05:16N 40°33' W 074°15'0 0.0
2014-Oct-18 04:24N 40°33' W 074°15'0 0.0
2014-Oct-18 03:33N 40°33' W 074°15'0 0.0
2014-Oct-18 02:03N 40°33' W 074°15'1 0.0
2014-Oct-17 04:18N 40°32' W 074°15'0 0.0
2014-Oct-17 03:31N 40°32' W 074°15'0 0.0
2014-Oct-17 01:27N 40°32' W 074°15'0 0.0
2014-Oct-17 00:25N 40°32' W 074°15'0 0.0
2014-Oct-16 18:03N 40°32' W 074°15'0 0.0
2014-Oct-16 16:19N 40°32' W 074°15'0 0.0
2014-Oct-16 14:13N 40°32' W 074°15'0 0.0
2014-Oct-16 10:14N 40°32' W 074°15'5 2.5
2014-Oct-16 08:17N 40°36' W 074°12'5 1.0
2014-Oct-16 03:07N 40°39' W 074°07'0 0.0
2014-Oct-16 02:29N 40°39' W 074°07'0 0.0
2014-Oct-16 01:30N 40°39' W 074°07'0 0.0
2014-Oct-16 00:20N 40°39' W 074°07'0 0.0
2014-Oct-15 20:29N 40°39' W 074°07'0 0.0
2014-Oct-15 19:33N 40°39' W 074°07'0 0.1
2014-Oct-15 18:33N 40°39' W 074°07'6 6.3
2014-Oct-15 17:33N 40°35' W 074°13'3 2.3
2014-Oct-15 16:08N 40°32' W 074°15'0 0.0
2014-Oct-15 15:17N 40°32' W 074°15'0 0.0
2014-Oct-15 14:33N 40°32' W 074°15'0 0.0
2014-Oct-15 13:24N 40°32' W 074°15'  

Dump ship's entire track history